This page will auto refresh every 5 minutes.
Stop auto refresh| Refresh Now

Currently Fair Skies
 
  Current Hour mean
High/Low
Day
High/Low
Temperature °F 30.4° (-0.9°C)
↓ -0.2°/hr
30.4°
30.4°/30.4°
37.6°/24.4°
Dew Point °F 26.7° (-2.9 °C)
↑ 0.4°/hr
26.6°
26.7 °/26.4 °
26.7°/10.7°
Humidity 86%
↑ 2%/hr
85.7%
86%/85%
86%/33%
Wind Gust (mph) SE 0 (0 kph) SE @ 0/SE @ 0 SW @ 15/SE @ 0
Wind Speed (mph)
Beaufort Scale
SE 0 (0 kph)
Calm (0)
SE @ 0/SE @ 0 SSW @ 6/SE @ 0
Sunshine (W/m2) 0 0.0
0/0
610 @ 10:53 AM
Precipitation 0.00"(0.00 mm) 1
(Past 24 hours: 0.10")
0.00"/hr2
0.00"/0.00"/hr2
0.00"/0.00"/hr2
Barometer
Falling
30.082" (1018.7mb)
↓ -0.040"/hr
30.086"
30.092"/30.082"
30.342"/30.082"
Wind Chill Gust °F 30° (-1°C) 30.4°
30°/30°
38°/21°
Wind Chill Avg °F 30° (-1°C) 30.4°
30°/30°
38°/24°
UV Index 0.0 0.00
0.0/0.0
0.0/0.0
1 Total rainfall.
2 Instantaneous rainfall rate.

 

Wind Distribution (Past 2 hours)

2 Hour Wind Compass Rose

 

Calculated Parameters

Wet Bulb  29.1°F
Temperature-Humidity Index  28.2°F
Equilibrium Moisture Content  15.55 %
Mixing Ratio  3.07 g/kg
Saturated Mixing Ratio  3.57 g/kg
Air Density  1.304 kg/m3
Density Altitude  -1543 ft
Estimated Potential Cloud Base  829 ft
Chandler Burning Index
Today
Month
 
 27.0 (LW)
 219.0 (EX )

 

METAR

METAR NONE 180120Z AUTO 00000KT M01/M03 A3008 RMK AO1 SLP187 T10091029 

2093, 0.0021